Time;durP1;ratioP1;P1;durP2;ratioP2;P2;SDS_P1;SDS_P2;PMS_P1;PMS_P2;Temp;Humidity;BMP_temperature;BMP_pressure;BME280_temperature;BME280_humidity;BME280_pressure;Samples;Min_cycle;Max_cycle;Signal;HPM_P1;HPM_P2
2021/04/16 00:00:00;;;;;;;9.32;3.08;;;2.00;82.40;;;;;;5049143;28;20135;-81
2021/04/16 00:02:27;;;;;;;6.35;2.85;;;2.00;82.40;;;;;;5050180;28;20499;-81
2021/04/16 00:04:53;;;;;;;4.90;2.83;;;1.90;82.80;;;;;;5070188;28;20430;-81
2021/04/16 00:07:18;;;;;;;7.22;3.20;;;2.00;82.70;;;;;;5050509;28;20570;-81
2021/04/16 00:09:44;;;;;;;5.38;3.20;;;1.90;82.70;;;;;;5051047;28;20064;-81
2021/04/16 00:12:11;;;;;;;6.03;2.78;;;1.90;82.80;;;;;;5051126;28;20150;-81
2021/04/16 00:14:37;;;;;;;6.28;2.50;;;1.80;83.00;;;;;;5058243;28;20324;-81
2021/04/16 00:17:04;;;;;;;9.60;3.42;;;1.80;83.10;;;;;;5038623;28;20281;-81
2021/04/16 00:19:30;;;;;;;8.63;2.92;;;1.80;83.50;;;;;;5034461;28;20663;-82
2021/04/16 00:21:56;;;;;;;6.80;3.28;;;1.70;83.50;;;;;;5068087;28;20048;-81
2021/04/16 00:24:22;;;;;;;5.38;2.60;;;1.80;83.70;;;;;;5049861;28;20056;-81
2021/04/16 00:26:48;;;;;;;10.95;3.20;;;1.70;83.90;;;;;;5039741;28;20032;-81
2021/04/16 00:29:14;;;;;;;8.13;3.28;;;1.60;83.80;;;;;;5074023;28;20029;-81
2021/04/16 00:31:50;;;;;;;7.72;2.80;;;1.60;84.10;;;;;;5067512;28;20096;-79
2021/04/16 00:34:26;;;;;;;8.30;2.92;;;1.60;84.20;;;;;;5056790;28;20044;-82
2021/04/16 00:36:53;;;;;;;7.55;3.15;;;1.50;84.30;;;;;;5066348;28;20059;-82
2021/04/16 00:39:22;;;;;;;10.40;2.97;;;1.50;84.30;;;;;;5070588;28;20132;-80
2021/04/16 00:41:51;;;;;;;5.38;3.00;;;1.40;84.30;;;;;;5075850;28;20116;-80
2021/04/16 00:44:18;;;;;;;7.00;3.28;;;1.50;84.40;;;;;;5048804;28;20578;-81
2021/04/16 00:46:56;;;;;;;6.80;2.88;;;1.40;84.30;;;;;;5046951;28;20040;-80
2021/04/16 00:49:45;;;;;;;6.63;3.17;;;1.40;84.40;;;;;;5071842;28;20230;-80
2021/04/16 00:52:12;;;;;;;5.32;2.67;;;1.40;85.30;;;;;;5082060;28;20048;-80
2021/04/16 00:54:41;;;;;;;10.10;3.35;;;1.50;84.80;;;;;;5055887;28;21285;-80
2021/04/16 00:57:10;;;;;;;8.07;3.53;;;1.30;84.70;;;;;;5070307;28;20032;-80
2021/04/16 00:59:39;;;;;;;5.32;3.00;;;1.30;84.90;;;;;;5070390;28;20032;-80
2021/04/16 01:02:06;;;;;;;11.38;3.33;;;1.30;85.00;;;;;;5064247;28;20115;-80
2021/04/16 01:04:33;;;;;;;7.40;2.88;;;1.30;85.20;;;;;;5058427;28;20559;-80
2021/04/16 01:07:02;;;;;;;5.95;3.58;;;1.30;85.30;;;;;;5047554;28;20391;-80
2021/04/16 01:09:29;;;;;;;11.10;3.45;;;1.20;85.40;;;;;;5085194;28;20036;-80
2021/04/16 01:11:56;;;;;;;7.15;2.70;;;1.20;85.50;;;;;;5077789;28;20032;-80
2021/04/16 01:14:23;;;;;;;6.00;2.60;;;1.20;85.70;;;;;;5068458;28;20055;-80
2021/04/16 01:16:50;;;;;;;7.00;3.13;;;1.20;86.00;;;;;;5064762;28;20034;-81
2021/04/16 01:19:29;;;;;;;4.82;2.53;;;1.10;85.80;;;;;;5052230;28;20092;-81
2021/04/16 01:22:17;;;;;;;5.85;3.10;;;1.10;86.10;;;;;;5068324;28;20694;-81
2021/04/16 01:24:43;;;;;;;5.70;2.42;;;1.00;86.00;;;;;;5074861;28;20081;-81
2021/04/16 01:27:13;;;;;;;7.30;2.97;;;1.00;86.00;;;;;;5062653;28;20032;-81
2021/04/16 01:29:44;;;;;;;6.55;3.13;;;1.00;86.00;;;;;;5065708;28;20111;-81
2021/04/16 01:32:18;;;;;;;8.43;2.80;;;0.90;86.10;;;;;;5079780;28;20067;-81
2021/04/16 01:34:47;;;;;;;8.38;3.53;;;0.90;86.20;;;;;;5067664;28;20536;-81
2021/04/16 01:37:13;;;;;;;6.13;3.53;;;0.80;86.30;;;;;;5052942;28;20028;-81
2021/04/16 01:39:40;;;;;;;5.63;2.78;;;0.80;86.50;;;;;;5067886;28;20378;-81
2021/04/16 01:42:06;;;;;;;5.80;3.38;;;0.70;86.60;;;;;;5073308;28;20249;-81
2021/04/16 01:44:32;;;;;;;8.10;3.28;;;0.70;86.70;;;;;;5070695;28;20121;-81
2021/04/16 01:47:03;;;;;;;7.85;3.38;;;0.70;86.80;;;;;;5071321;28;20070;-81
2021/04/16 01:49:34;;;;;;;5.57;3.00;;;0.70;86.90;;;;;;5070041;28;20072;-80
2021/04/16 01:52:00;;;;;;;9.45;3.33;;;0.60;87.00;;;;;;5074056;28;20044;-81
2021/04/16 01:54:44;;;;;;;10.05;3.10;;;0.60;86.90;;;;;;5070878;28;20138;-80
2021/04/16 01:57:23;;;;;;;6.32;3.40;;;0.50;87.20;;;;;;5079450;28;20053;-80
2021/04/16 01:59:51;;;;;;;7.95;2.90;;;0.50;87.10;;;;;;5070139;28;20032;-80
2021/04/16 02:02:28;;;;;;;6.05;2.70;;;0.50;87.10;;;;;;5072172;28;20487;-80
2021/04/16 02:04:53;;;;;;;9.77;3.60;;;0.40;87.20;;;;;;5064587;28;20564;-80
2021/04/16 02:07:19;;;;;;;10.07;3.55;;;0.40;87.00;;;;;;5050421;28;20036;-80
2021/04/16 02:09:46;;;;;;;9.27;3.72;;;0.40;87.20;;;;;;5052502;28;20029;-80
2021/04/16 02:12:20;;;;;;;5.95;3.10;;;0.40;87.30;;;;;;5063051;28;20113;-80
2021/04/16 02:14:47;;;;;;;6.22;3.40;;;0.40;87.50;;;;;;5084894;28;20036;-80
2021/04/16 02:17:16;;;;;;;9.48;4.10;;;0.40;87.40;;;;;;5096376;28;20291;-80
2021/04/16 02:19:42;;;;;;;9.95;3.78;;;0.40;87.50;;;;;;5063451;28;20101;-80
2021/04/16 02:22:12;;;;;;;8.43;3.60;;;0.30;87.80;;;;;;5068191;28;20036;-80
2021/04/16 02:24:38;;;;;;;11.68;4.00;;;0.30;87.80;;;;;;5066908;28;20046;-80
2021/04/16 02:27:05;;;;;;;11.05;4.05;;;0.30;87.70;;;;;;5050971;28;20032;-80
2021/04/16 02:29:30;;;;;;;5.95;3.80;;;0.30;87.90;;;;;;5069185;28;20422;-80
2021/04/16 02:31:56;;;;;;;9.20;4.05;;;0.30;87.90;;;;;;5067456;28;20042;-80
2021/04/16 02:34:28;;;;;;;11.35;3.65;;;0.20;88.00;;;;;;5065981;28;20045;-80
2021/04/16 02:36:57;;;;;;;6.35;3.63;;;0.10;88.20;;;;;;5071165;28;20051;-80
2021/04/16 02:39:24;;;;;;;7.40;3.58;;;0.20;88.20;;;;;;5062463;28;20044;-80
2021/04/16 02:41:50;;;;;;;6.18;3.63;;;0.10;87.90;;;;;;5075541;28;20036;-80
2021/04/16 02:44:17;;;;;;;6.65;3.50;;;0.10;88.00;;;;;;5074165;28;20058;-80
2021/04/16 02:46:43;;;;;;;8.88;3.65;;;0.10;88.10;;;;;;5065654;28;20032;-80
2021/04/16 02:49:09;;;;;;;10.30;3.88;;;0.10;88.00;;;;;;5057456;28;20033;-80
2021/04/16 02:51:35;;;;;;;5.55;2.97;;;0.10;88.10;;;;;;5065211;28;20040;-80
2021/04/16 02:54:01;;;;;;;5.60;3.35;;;0.00;88.30;;;;;;5068758;28;20479;-80
2021/04/16 02:56:27;;;;;;;7.57;3.30;;;0.00;88.40;;;;;;5047057;28;20059;-80
2021/04/16 02:58:53;;;;;;;10.15;3.33;;;0.00;88.30;;;;;;5068600;28;20486;-80
2021/04/16 03:01:19;;;;;;;5.90;3.60;;;0.00;88.30;;;;;;5067716;28;20387;-81
2021/04/16 03:03:45;;;;;;;8.27;3.40;;;0.00;88.20;;;;;;5068291;28;20062;-80
2021/04/16 03:06:11;;;;;;;8.05;3.70;;;0.00;88.50;;;;;;5052411;28;20470;-81
2021/04/16 03:08:37;;;;;;;8.02;3.83;;;0.00;88.50;;;;;;5058395;28;20032;-80
2021/04/16 03:11:08;;;;;;;7.72;3.53;;;0.00;88.50;;;;;;5082185;28;20042;-80
2021/04/16 03:13:34;;;;;;;5.85;3.15;;;0.00;88.50;;;;;;5086264;28;20119;-80
2021/04/16 03:16:03;;;;;;;7.95;4.13;;;-0.10;88.50;;;;;;5050564;28;20546;-80
2021/04/16 03:18:29;;;;;;;8.73;4.13;;;-0.10;88.40;;;;;;5086537;28;20032;-80
2021/04/16 03:20:55;;;;;;;11.13;4.78;;;-0.20;88.60;;;;;;5068373;28;20032;-80
2021/04/16 03:23:21;;;;;;;7.78;3.70;;;-0.20;88.50;;;;;;5051154;28;20048;-80
2021/04/16 03:25:47;;;;;;;10.20;4.72;;;-0.20;88.70;;;;;;5066185;28;20486;-80
2021/04/16 03:28:13;;;;;;;10.90;3.80;;;-0.20;88.90;;;;;;5070203;28;20036;-80
2021/04/16 03:30:39;;;;;;;8.07;3.97;;;-0.20;88.80;;;;;;5066986;28;20040;-81
2021/04/16 03:33:05;;;;;;;5.60;3.63;;;-0.20;89.00;;;;;;5052926;28;20682;-80
2021/04/16 03:35:30;;;;;;;7.97;4.10;;;-0.20;88.90;;;;;;5080179;28;20402;-80
2021/04/16 03:37:57;;;;;;;12.45;4.22;;;-0.20;88.90;;;;;;5075673;28;20053;-80
2021/04/16 03:40:27;;;;;;;8.85;3.90;;;-0.20;88.90;;;;;;5063869;28;20043;-81
2021/04/16 03:42:54;;;;;;;11.57;4.10;;;-0.20;89.00;;;;;;5071783;28;20039;-80
2021/04/16 03:45:21;;;;;;;10.35;4.43;;;-0.30;89.10;;;;;;5065057;28;20125;-80
2021/04/16 03:47:47;;;;;;;9.93;4.13;;;-0.20;89.20;;;;;;5066838;28;20063;-81
2021/04/16 03:50:21;;;;;;;8.15;4.28;;;-0.30;89.00;;;;;;5053271;28;20048;-81
2021/04/16 03:52:47;;;;;;;10.45;4.65;;;-0.30;89.10;;;;;;5065741;28;20655;-81
2021/04/16 03:55:15;;;;;;;16.70;4.50;;;-0.30;89.20;;;;;;5068368;28;20036;-81
2021/04/16 03:57:41;;;;;;;13.10;5.13;;;-0.30;89.30;;;;;;5071660;28;20477;-81
2021/04/16 04:00:09;;;;;;;8.07;4.32;;;-0.20;89.40;;;;;;5066112;28;20123;-81
2021/04/16 04:02:36;;;;;;;12.02;4.43;;;-0.30;89.30;;;;;;5073441;28;20039;-81
2021/04/16 04:05:02;;;;;;;6.97;4.00;;;-0.20;89.40;;;;;;5072079;28;20027;-81
2021/04/16 04:07:28;;;;;;;10.18;4.70;;;-0.30;89.30;;;;;;5072413;28;20039;-81
2021/04/16 04:09:53;;;;;;;11.20;5.13;;;-0.30;89.40;;;;;;5063560;28;20417;-81
2021/04/16 04:12:19;;;;;;;13.38;5.03;;;-0.30;89.30;;;;;;5041276;28;20042;-81
2021/04/16 04:14:45;;;;;;;9.52;4.13;;;-0.30;89.40;;;;;;5047644;28;20028;-81
2021/04/16 04:17:23;;;;;;;14.70;5.20;;;-0.30;89.40;;;;;;5070021;28;20160;-81
2021/04/16 04:19:49;;;;;;;13.18;4.82;;;-0.40;89.60;;;;;;5069745;28;20095;-81
2021/04/16 04:22:14;;;;;;;16.27;5.72;;;-0.40;89.60;;;;;;5078513;28;20116;-80
2021/04/16 04:24:40;;;;;;;15.70;5.53;;;-0.40;89.50;;;;;;5063870;28;20044;-81
2021/04/16 04:27:07;;;;;;;22.00;5.68;;;-0.40;89.60;;;;;;5075968;28;20055;-80
2021/04/16 04:29:32;;;;;;;15.32;6.30;;;-0.30;89.80;;;;;;5051053;28;20036;-80
2021/04/16 04:31:58;;;;;;;14.50;6.22;;;-0.30;89.70;;;;;;5050619;28;20097;-81
2021/04/16 04:34:27;;;;;;;14.65;6.05;;;-0.30;89.80;;;;;;5053857;28;20214;-81
2021/04/16 04:36:56;;;;;;;13.70;5.93;;;-0.30;90.20;;;;;;5064146;28;20036;-81
2021/04/16 04:39:24;;;;;;;19.63;6.18;;;-0.30;90.00;;;;;;5060788;28;20036;-81
2021/04/16 04:41:50;;;;;;;15.55;8.15;;;-0.30;90.00;;;;;;5066051;28;20150;-81
2021/04/16 04:44:17;;;;;;;16.45;5.82;;;-0.20;90.00;;;;;;5066494;28;20055;-81
2021/04/16 04:46:43;;;;;;;19.70;7.05;;;-0.20;90.10;;;;;;5068899;28;20028;-82
2021/04/16 04:49:10;;;;;;;12.88;6.05;;;-0.10;90.10;;;;;;5045252;28;20029;-82
2021/04/16 04:51:37;;;;;;;11.85;5.70;;;-0.10;90.20;;;;;;5068887;28;20394;-81
2021/04/16 04:54:05;;;;;;;13.35;6.32;;;-0.10;90.10;;;;;;5065308;28;20181;-81
2021/04/16 04:56:30;;;;;;;19.35;6.47;;;-0.10;90.20;;;;;;5048251;28;20142;-79
2021/04/16 04:58:56;;;;;;;20.75;6.72;;;-0.10;90.10;;;;;;5053307;28;20111;-82
2021/04/16 05:01:22;;;;;;;16.17;6.22;;;0.00;90.20;;;;;;5075068;28;20045;-82
2021/04/16 05:03:48;;;;;;;14.57;6.88;;;0.00;90.20;;;;;;5052244;28;20479;-82
2021/04/16 05:06:13;;;;;;;15.65;6.57;;;0.00;90.20;;;;;;5074194;28;20486;-82
2021/04/16 05:08:39;;;;;;;14.48;6.22;;;0.10;90.30;;;;;;5083057;28;20262;-82
2021/04/16 05:11:08;;;;;;;15.95;6.30;;;0.10;90.20;;;;;;5077055;28;20512;-80
2021/04/16 05:13:34;;;;;;;11.70;5.75;;;0.20;90.30;;;;;;5068833;28;20690;-80
2021/04/16 05:16:00;;;;;;;14.32;5.65;;;0.20;90.30;;;;;;5037243;28;20074;-81
2021/04/16 05:18:26;;;;;;;17.50;7.28;;;0.20;90.60;;;;;;5056229;28;20407;-81
2021/04/16 05:20:52;;;;;;;16.98;6.32;;;0.30;90.30;;;;;;5083754;28;20032;-81
2021/04/16 05:23:17;;;;;;;15.85;6.45;;;0.30;90.30;;;;;;5071666;28;20049;-81
2021/04/16 05:25:47;;;;;;;19.88;7.00;;;0.40;90.30;;;;;;5067199;28;20037;-81
2021/04/16 05:28:13;;;;;;;13.60;5.35;;;0.40;90.30;;;;;;5069679;28;20300;-81
2021/04/16 05:30:39;;;;;;;19.98;6.53;;;0.40;90.30;;;;;;5065317;28;20050;-81
2021/04/16 05:33:05;;;;;;;15.13;5.90;;;0.40;90.30;;;;;;5053246;28;20032;-81
2021/04/16 05:35:32;;;;;;;15.25;5.95;;;0.40;90.30;;;;;;5067004;28;20101;-81
2021/04/16 05:37:58;;;;;;;20.67;6.10;;;0.50;90.30;;;;;;5073208;28;20128;-81
2021/04/16 05:40:27;;;;;;;13.70;5.97;;;0.50;90.30;;;;;;5040174;28;20130;-81
2021/04/16 05:42:54;;;;;;;18.80;7.55;;;0.50;90.20;;;;;;5064641;28;20509;-81
2021/04/16 05:45:21;;;;;;;16.67;6.78;;;0.60;90.20;;;;;;5072464;28;20043;-81
2021/04/16 05:47:47;;;;;;;14.73;6.82;;;0.70;90.30;;;;;;5073083;28;20040;-81
2021/04/16 05:50:14;;;;;;;15.13;6.55;;;0.70;90.30;;;;;;5073714;28;20036;-81
2021/04/16 05:52:40;;;;;;;13.90;6.43;;;0.80;90.20;;;;;;5069069;28;20105;-81
2021/04/16 05:55:07;;;;;;;20.98;7.90;;;0.90;90.20;;;;;;5056916;28;20036;-80
2021/04/16 05:57:33;;;;;;;14.25;6.28;;;0.90;90.30;;;;;;5078920;28;20032;-81
2021/04/16 05:59:59;;;;;;;17.27;8.38;;;1.10;90.40;;;;;;5086158;28;20085;-81
2021/04/16 06:02:33;;;;;;;19.45;9.20;;;1.20;90.40;;;;;;5076017;28;20279;-81
2021/04/16 06:05:02;;;;;;;23.98;7.47;;;1.20;90.40;;;;;;5072449;28;20067;-81
2021/04/16 06:07:30;;;;;;;24.25;8.32;;;1.30;90.50;;;;;;5082906;28;20028;-81
2021/04/16 06:09:57;;;;;;;17.15;7.50;;;1.40;90.60;;;;;;5068332;28;20032;-81
2021/04/16 06:12:23;;;;;;;25.17;11.05;;;1.60;90.80;;;;;;5065303;28;20437;-81
2021/04/16 06:14:58;;;;;;;16.80;7.57;;;1.60;90.80;;;;;;5070745;28;20036;-81
2021/04/16 06:17:23;;;;;;;23.98;9.32;;;1.70;90.90;;;;;;5067744;28;20092;-81
2021/04/16 06:19:50;;;;;;;26.38;10.77;;;1.90;91.10;;;;;;5061055;28;20451;-80
2021/04/16 06:22:19;;;;;;;29.73;11.50;;;2.10;91.30;;;;;;5076896;28;20030;-81
2021/04/16 06:24:45;;;;;;;31.15;10.63;;;2.40;91.60;;;;;;5081282;28;20036;-81
2021/04/16 06:27:12;;;;;;;22.40;8.15;;;2.50;91.50;;;;;;5055741;28;20515;-80
2021/04/16 06:29:38;;;;;;;17.77;7.32;;;2.70;91.60;;;;;;5068507;28;20055;-81
2021/04/16 06:32:04;;;;;;;21.42;8.48;;;2.90;91.80;;;;;;5066523;28;20093;-81
2021/04/16 06:34:30;;;;;;;27.13;8.25;;;3.20;91.70;;;;;;5067469;28;20097;-80
2021/04/16 06:36:56;;;;;;;15.98;7.18;;;3.40;91.70;;;;;;5066395;28;20450;-81
2021/04/16 06:39:22;;;;;;;17.08;7.20;;;3.60;91.60;;;;;;5045345;28;20087;-81
2021/04/16 06:41:49;;;;;;;17.17;6.80;;;3.80;91.70;;;;;;5072581;28;20035;-81
2021/04/16 06:44:21;;;;;;;21.25;6.80;;;4.10;91.60;;;;;;5064411;28;20032;-80
2021/04/16 06:47:01;;;;;;;15.80;5.78;;;4.20;91.60;;;;;;5064185;28;20036;-80
2021/04/16 06:49:30;;;;;;;11.18;6.10;;;4.40;91.40;;;;;;5080579;28;20127;-80
2021/04/16 06:52:10;;;;;;;13.60;5.35;;;4.60;91.20;;;;;;5076505;28;20487;-81
2021/04/16 06:55:01;;;;;;;14.63;4.95;;;4.80;91.10;;;;;;5066733;28;20028;-81
2021/04/16 06:57:44;;;;;;;16.17;5.10;;;5.00;90.80;;;;;;5061810;28;20157;-81
2021/04/16 07:00:20;;;;;;;10.48;4.85;;;5.10;90.70;;;;;;5068190;28;20041;-81
2021/04/16 07:02:52;;;;;;;14.55;4.85;;;5.20;90.40;;;;;;5069149;28;20047;-81
2021/04/16 07:05:28;;;;;;;10.85;5.15;;;5.30;90.20;;;;;;5076370;28;20475;-82
2021/04/16 07:07:57;;;;;;;13.05;4.40;;;5.50;90.10;;;;;;5066280;28;20040;-81
2021/04/16 07:10:32;;;;;;;11.18;4.07;;;5.60;89.30;;;;;;5071233;28;20043;-81
2021/04/16 07:13:01;;;;;;;11.43;4.20;;;5.80;88.90;;;;;;5072337;28;20069;-81
2021/04/16 07:15:43;;;;;;;10.23;4.00;;;5.90;88.10;;;;;;5069131;28;20044;-80
2021/04/16 07:18:14;;;;;;;8.00;3.58;;;6.10;87.20;;;;;;5069872;28;20517;-80
2021/04/16 07:20:40;;;;;;;17.33;4.38;;;6.20;86.80;;;;;;5070992;28;20279;-81
2021/04/16 07:23:06;;;;;;;10.38;3.80;;;6.30;85.80;;;;;;5031468;28;20041;-81
2021/04/16 07:25:42;;;;;;;6.65;3.42;;;6.40;85.50;;;;;;5066153;28;20028;-80
2021/04/16 07:28:14;;;;;;;7.85;2.90;;;6.50;84.80;;;;;;5083211;28;20398;-81
2021/04/16 07:30:50;;;;;;;8.70;3.10;;;6.60;82.70;;;;;;5090567;28;20024;-81
2021/04/16 07:33:25;;;;;;;8.45;3.30;;;6.70;82.20;;;;;;5071563;28;20041;-81
2021/04/16 07:36:11;;;;;;;6.18;2.45;;;6.80;81.50;;;;;;5069562;28;20475;-82
2021/04/16 07:38:37;;;;;;;7.63;2.63;;;7.00;79.70;;;;;;5068553;28;20463;-81
2021/04/16 07:41:25;;;;;;;8.65;2.50;;;7.20;78.10;;;;;;5064245;28;20574;-81
2021/04/16 07:43:53;;;;;;;5.80;2.22;;;7.30;75.00;;;;;;5064848;28;20537;-81
2021/04/16 07:46:32;;;;;;;5.57;2.17;;;7.40;74.10;;;;;;5050168;28;20032;-82
2021/04/16 07:49:15;;;;;;;6.22;2.00;;;7.50;71.40;;;;;;5062461;28;20044;-81
2021/04/16 07:51:43;;;;;;;5.50;2.00;;;7.60;70.40;;;;;;5064004;28;20508;-81
2021/04/16 07:54:23;;;;;;;7.18;2.10;;;7.70;71.00;;;;;;5070598;28;20037;-83
2021/04/16 07:57:17;;;;;;;6.13;2.13;;;7.80;70.30;;;;;;5075303;28;20575;-81
2021/04/16 07:59:57;;;;;;;6.20;2.00;;;8.00;68.00;;;;;;5065819;28;20504;-81
2021/04/16 08:02:28;;;;;;;6.22;2.00;;;8.10;68.60;;;;;;5073662;28;20147;-83
2021/04/16 08:04:54;;;;;;;5.80;2.20;;;8.20;68.30;;;;;;5067197;28;20078;-82
2021/04/16 08:07:31;;;;;;;4.07;1.77;;;8.20;67.60;;;;;;5047160;28;20028;-82
2021/04/16 08:09:59;;;;;;;6.85;2.13;;;8.30;67.80;;;;;;5072276;28;20158;-80
2021/04/16 08:12:26;;;;;;;5.18;2.00;;;8.30;66.90;;;;;;5038380;28;20043;-82
2021/04/16 08:15:12;;;;;;;4.30;1.70;;;8.40;67.60;;;;;;5062881;28;20036;-82
2021/04/16 08:17:40;;;;;;;9.35;1.95;;;8.40;66.60;;;;;;5063065;28;20044;-82
2021/04/16 08:20:30;;;;;;;5.53;1.70;;;8.50;66.90;;;;;;5056046;28;20123;-81
2021/04/16 08:22:58;;;;;;;8.00;1.85;;;8.60;64.70;;;;;;5077424;28;20032;-81
2021/04/16 08:25:36;;;;;;;4.07;1.75;;;8.70;64.50;;;;;;5046333;28;20036;-81
2021/04/16 08:28:17;;;;;;;11.02;2.17;;;8.80;63.60;;;;;;5072094;28;20092;-82
2021/04/16 08:30:59;;;;;;;5.30;1.63;;;8.80;62.70;;;;;;5062940;28;20202;-81
2021/04/16 08:33:36;;;;;;;5.60;1.77;;;8.80;61.80;;;;;;5062333;28;20174;-82
2021/04/16 08:36:33;;;;;;;3.70;1.45;;;8.90;61.90;;;;;;5060855;28;20117;-82
2021/04/16 08:39:16;;;;;;;3.45;1.60;;;9.00;61.40;;;;;;5064230;28;20512;-82
2021/04/16 08:41:48;;;;;;;10.77;2.00;;;9.10;61.20;;;;;;5077988;28;20045;-82
2021/04/16 08:44:14;;;;;;;2.93;1.57;;;9.20;61.40;;;;;;5072680;28;20063;-82
2021/04/16 08:46:46;;;;;;;3.67;1.83;;;9.30;60.60;;;;;;5057838;28;20059;-80
2021/04/16 08:49:21;;;;;;;2.92;1.60;;;9.40;58.30;;;;;;5065672;28;20048;-82
2021/04/16 08:52:28;;;;;;;14.63;2.22;;;9.50;59.40;;;;;;5068492;28;20040;-83
2021/04/16 08:54:55;;;;;;;6.93;1.85;;;9.60;60.20;;;;;;5063440;28;20056;-82
2021/04/16 08:57:33;;;;;;;6.28;1.85;;;9.70;59.00;;;;;;5060827;28;20420;-82
2021/04/16 09:00:16;;;;;;;5.55;1.75;;;9.70;59.50;;;;;;5067768;28;20059;-82
2021/04/16 09:02:54;;;;;;;3.85;1.60;;;9.70;59.80;;;;;;5078495;28;20437;-81
2021/04/16 09:05:35;;;;;;;5.38;1.77;;;9.80;60.00;;;;;;5073454;28;20884;-84
2021/04/16 09:08:07;;;;;;;4.43;1.63;;;9.90;59.20;;;;;;5063196;28;20036;-82
2021/04/16 09:10:47;;;;;;;3.93;1.63;;;10.00;60.00;;;;;;5068743;28;20067;-83
2021/04/16 09:13:33;;;;;;;3.33;1.88;;;10.00;58.20;;;;;;5079866;28;20039;-82
2021/04/16 09:16:17;;;;;;;2.13;1.45;;;10.10;58.80;;;;;;5095071;28;20283;-81
2021/04/16 09:18:51;;;;;;;5.57;1.60;;;10.20;57.40;;;;;;5074660;28;20047;-85
2021/04/16 09:21:25;;;;;;;6.32;1.83;;;10.20;56.70;;;;;;5073303;28;20481;-81
2021/04/16 09:23:58;;;;;;;5.72;2.72;;;10.20;56.10;;;;;;5071196;28;20093;-83
2021/04/16 09:26:43;;;;;;;3.13;1.73;;;10.20;55.90;;;;;;5069748;28;20063;-83
2021/04/16 09:29:28;;;;;;;4.10;1.40;;;10.30;56.40;;;;;;5069693;28;20327;-82
2021/04/16 09:32:00;;;;;;;2.50;1.30;;;10.30;54.70;;;;;;5077321;28;20239;-83
2021/04/16 09:34:45;;;;;;;2.10;1.20;;;10.40;55.90;;;;;;5068852;28;20334;-82
2021/04/16 09:37:33;;;;;;;3.13;1.42;;;10.50;55.60;;;;;;5055665;28;20062;-83
2021/04/16 09:40:05;;;;;;;3.38;1.50;;;10.50;55.60;;;;;;5073484;28;20036;-83
2021/04/16 09:42:35;;;;;;;5.80;1.95;;;10.50;55.30;;;;;;5078749;28;20036;-82
2021/04/16 09:45:03;;;;;;;8.98;1.52;;;10.60;55.90;;;;;;5076862;28;20479;-83
2021/04/16 09:47:52;;;;;;;3.70;1.50;;;10.60;56.00;;;;;;5070560;28;20039;-81
2021/04/16 09:50:41;;;;;;;6.07;1.70;;;10.70;55.60;;;;;;5062490;28;20036;-81
2021/04/16 09:53:15;;;;;;;4.15;1.55;;;10.70;55.60;;;;;;5067732;28;20117;-83
2021/04/16 09:56:01;;;;;;;3.22;1.70;;;10.80;55.40;;;;;;5071507;28;20036;-83
2021/04/16 09:58:30;;;;;;;2.78;1.30;;;10.70;54.60;;;;;;5078504;28;20028;-81
2021/04/16 10:00:55;;;;;;;5.70;1.55;;;10.80;54.60;;;;;;5082906;28;20032;-84
2021/04/16 10:03:25;;;;;;;3.97;1.50;;;10.80;55.50;;;;;;5080402;28;20039;-83
2021/04/16 10:05:53;;;;;;;4.80;1.75;;;10.90;54.60;;;;;;5070391;28;20059;-82
2021/04/16 10:08:29;;;;;;;2.65;1.45;;;10.90;53.70;;;;;;5069801;28;20044;-82
2021/04/16 10:11:03;;;;;;;5.38;1.92;;;10.80;54.40;;;;;;5074174;28;20236;-83
2021/04/16 10:13:32;;;;;;;4.50;1.33;;;10.90;54.90;;;;;;5073386;28;20062;-82
2021/04/16 10:15:59;;;;;;;3.78;1.98;;;11.00;54.90;;;;;;5070613;28;20032;-82
2021/04/16 10:18:34;;;;;;;8.60;1.75;;;11.10;54.20;;;;;;5065224;28;20129;-81
2021/04/16 10:21:07;;;;;;;5.50;1.48;;;11.20;54.00;;;;;;5065440;28;20032;-82
2021/04/16 10:23:35;;;;;;;2.33;1.50;;;11.30;54.50;;;;;;5072645;28;20066;-83
2021/04/16 11:45:10;;;;;;;7.72;2.63;;;11.90;56.10;;;;;;5090396;28;20085;-82
2021/04/16 12:39:34;;;;;;;6.03;2.25;;;13.30;48.90;;;;;;5069242;28;20153;-81
2021/04/16 12:42:00;;;;;;;4.53;1.85;;;13.10;48.80;;;;;;5060021;28;20040;-82
2021/04/16 12:44:44;;;;;;;6.53;2.10;;;13.10;47.70;;;;;;5051176;28;20379;-83
2021/04/16 12:47:14;;;;;;;6.18;2.55;;;13.10;47.70;;;;;;5066634;28;20063;-81
2021/04/16 12:49:40;;;;;;;6.90;2.25;;;13.10;48.10;;;;;;5068280;28;20064;-83
2021/04/16 12:52:07;;;;;;;3.78;2.10;;;13.20;48.10;;;;;;5074750;28;20043;-82
2021/04/16 12:54:37;;;;;;;5.72;2.35;;;13.30;46.70;;;;;;5061309;28;20051;-82
2021/04/16 12:57:10;;;;;;;4.38;2.08;;;13.20;45.90;;;;;;5085290;28;20628;-82
2021/04/16 12:59:37;;;;;;;31.70;12.95;;;13.10;45.80;;;;;;5073289;28;20048;-84
2021/04/16 13:02:07;;;;;;;18.50;7.25;;;12.90;46.10;;;;;;5054325;28;20067;-82
2021/04/16 13:04:39;;;;;;;5.57;2.75;;;13.00;46.30;;;;;;5071443;28;20086;-83
2021/04/16 13:07:05;;;;;;;;;;;13.20;45.70;;;;;;5072080;28;20040;-82
2021/04/16 13:09:31;;;;;;;4.10;2.47;;;13.20;47.00;;;;;;5068583;28;19920;-83
2021/04/16 13:11:56;;;;;;;5.80;2.85;;;13.20;46.90;;;;;;5057830;28;20089;-82
2021/04/16 13:14:22;;;;;;;6.60;2.40;;;13.10;47.10;;;;;;5052322;28;20032;-82
2021/04/16 13:16:48;;;;;;;5.43;2.50;;;13.10;46.50;;;;;;5038935;28;20040;-81
2021/04/16 13:19:35;;;;;;;3.15;2.40;;;12.90;45.90;;;;;;5067526;28;20236;-83
2021/04/16 13:22:10;;;;;;;5.03;2.40;;;12.70;45.90;;;;;;5067003;28;20521;-84
2021/04/16 13:24:38;;;;;;;3.55;1.60;;;12.80;45.60;;;;;;5068149;28;20038;-81
2021/04/16 13:27:07;;;;;;;6.28;2.42;;;12.80;45.10;;;;;;5067990;28;20486;-81
2021/04/16 13:29:34;;;;;;;7.30;2.80;;;12.90;45.90;;;;;;5066218;28;20040;-83
2021/04/16 13:32:01;;;;;;;9.45;3.30;;;13.10;47.70;;;;;;5039346;28;20071;-81
2021/04/16 13:34:28;;;;;;;10.02;3.70;;;13.60;48.80;;;;;;5065937;28;20652;-83
2021/04/16 13:36:55;;;;;;;6.88;3.63;;;13.90;48.80;;;;;;5052283;28;20039;-82
2021/04/16 13:39:21;;;;;;;11.57;3.60;;;13.90;48.70;;;;;;5055618;28;20037;-84
2021/04/16 13:41:47;;;;;;;8.63;3.20;;;13.70;48.60;;;;;;5073566;28;20354;-86
2021/04/16 13:44:15;;;;;;;9.13;2.90;;;13.50;48.00;;;;;;5049612;28;20048;-82
2021/04/16 13:46:41;;;;;;;10.95;3.42;;;13.20;47.40;;;;;;5069556;28;20032;-83
2021/04/16 13:49:09;;;;;;;6.82;2.88;;;13.30;48.30;;;;;;5067301;28;20032;-83
2021/04/16 13:51:36;;;;;;;8.55;3.03;;;13.20;48.10;;;;;;5069026;28;20016;-80
2021/04/16 13:54:07;;;;;;;6.60;3.33;;;13.90;48.90;;;;;;5077957;28;20114;-83
2021/04/16 13:56:34;;;;;;;5.03;2.85;;;15.10;47.20;;;;;;5068723;28;20039;-82
2021/04/16 13:59:00;;;;;;;6.20;2.42;;;16.00;46.30;;;;;;5068157;28;20039;-81
2021/04/16 14:01:27;;;;;;;6.95;3.25;;;16.20;45.60;;;;;;5069798;28;20209;-81
2021/04/16 14:04:01;;;;;;;8.50;3.85;;;15.60;44.90;;;;;;5063844;28;20513;-78
2021/04/16 14:06:32;;;;;;;6.10;2.97;;;15.00;45.50;;;;;;5077328;28;20763;-81
2021/04/16 14:09:04;;;;;;;5.53;2.80;;;14.40;45.20;;;;;;5065749;28;20028;-79
2021/04/16 14:11:33;;;;;;;6.43;3.03;;;13.80;45.80;;;;;;5074896;28;20062;-81
2021/04/16 14:14:06;;;;;;;5.07;2.65;;;13.40;46.80;;;;;;5054576;28;20426;-82
2021/04/16 14:17:15;;;;;;;6.57;3.10;;;13.10;46.60;;;;;;5050264;28;20040;-83
2021/04/16 14:20:04;;;;;;;5.90;2.78;;;12.80;46.90;;;;;;5073860;28;20033;-81
2021/04/16 14:22:34;;;;;;;4.38;2.60;;;12.60;46.70;;;;;;5070959;28;20058;-81
2021/04/16 14:25:01;;;;;;;7.28;3.03;;;12.90;47.00;;;;;;5067928;28;20025;-84
2021/04/16 14:27:27;;;;;;;7.72;3.20;;;14.00;46.50;;;;;;5075520;28;20433;-81
2021/04/16 14:29:53;;;;;;;6.97;2.80;;;14.10;46.00;;;;;;5066921;28;20029;-82
2021/04/16 14:32:22;;;;;;;11.07;3.17;;;13.60;45.80;;;;;;5064586;28;20134;-80
2021/04/16 14:34:47;;;;;;;5.47;2.80;;;13.20;46.50;;;;;;5083780;28;20036;-82
2021/04/16 14:37:14;;;;;;;5.75;2.90;;;13.20;47.00;;;;;;5054009;28;20157;-81
2021/04/16 14:39:39;;;;;;;6.93;2.40;;;13.40;46.80;;;;;;5079543;28;20530;-82
2021/04/16 14:42:06;;;;;;;6.45;2.40;;;14.10;46.20;;;;;;5073505;28;20035;-80
2021/04/16 14:44:32;;;;;;;7.55;2.78;;;15.20;45.20;;;;;;5076754;28;20056;-82
2021/04/16 14:46:58;;;;;;;4.45;2.85;;;15.80;44.20;;;;;;5063338;28;20402;-81
2021/04/16 14:49:27;;;;;;;4.93;2.90;;;16.20;42.70;;;;;;5072837;28;20035;-80
2021/04/16 14:51:55;;;;;;;6.97;2.70;;;16.20;41.90;;;;;;5087459;28;20028;-82
2021/04/16 14:54:23;;;;;;;8.35;2.58;;;16.80;42.00;;;;;;5055009;28;20040;-83
2021/04/16 14:56:50;;;;;;;4.50;2.20;;;17.10;39.70;;;;;;5071469;28;20058;-79
2021/04/16 14:59:39;;;;;;;4.78;2.45;;;17.10;39.70;;;;;;5045079;28;20044;-82
2021/04/16 15:02:06;;;;;;;8.07;3.30;;;16.80;38.40;;;;;;5046742;28;20438;-82
2021/04/16 15:04:32;;;;;;;9.00;3.13;;;15.90;40.40;;;;;;5071078;28;20039;-81
2021/04/16 15:07:04;;;;;;;4.60;2.65;;;15.90;42.30;;;;;;5071931;28;20382;-84
2021/04/16 15:09:46;;;;;;;6.22;2.45;;;16.50;41.60;;;;;;5082178;28;20043;-82
2021/04/16 15:12:23;;;;;;;10.33;3.07;;;16.60;39.70;;;;;;5077566;28;20032;-81
2021/04/16 15:14:57;;;;;;;4.65;2.35;;;16.10;39.80;;;;;;5053886;28;20097;-82